createdAt,value
2019-04-05T00:01:15.534Z,63.55
2019-04-05T00:03:42.262Z,63.37
2019-04-05T00:06:08.997Z,63.39
2019-04-05T00:08:35.703Z,63.17
2019-04-05T00:11:02.328Z,63.41
2019-04-05T00:13:29.057Z,63.03
2019-04-05T00:15:55.767Z,63.06
2019-04-05T00:18:22.503Z,63.18
2019-04-05T00:20:49.106Z,63.39
2019-04-05T00:23:15.767Z,63.46
2019-04-05T00:25:42.492Z,63.35
2019-04-05T00:28:09.232Z,63.28
2019-04-05T00:30:35.864Z,63.37
2019-04-05T00:33:02.598Z,63.41
2019-04-05T00:35:29.311Z,63.68
2019-04-05T00:37:56.057Z,63.70
2019-04-05T00:40:22.671Z,63.62
2019-04-05T00:42:49.324Z,63.62
2019-04-05T00:45:27.610Z,63.71
2019-04-05T00:47:44.575Z,63.90
2019-04-05T00:50:11.201Z,64.10
2019-04-05T00:52:37.949Z,64.09
2019-04-05T00:55:06.144Z,63.89
2019-04-05T00:57:33.296Z,64.14
2019-04-05T01:00:00.063Z,64.10
2019-04-05T01:02:26.692Z,64.49
2019-04-05T01:04:53.281Z,64.28
2019-04-05T01:07:19.897Z,64.37
2019-04-05T01:09:46.487Z,64.26
2019-04-05T01:12:13.109Z,64.18
2019-04-05T01:14:40.125Z,64.36
2019-04-05T01:17:06.723Z,64.44
2019-04-05T01:19:33.647Z,64.26
2019-04-05T01:22:00.240Z,64.39
2019-04-05T01:24:26.832Z,64.27
2019-04-05T01:26:53.455Z,64.03
2019-04-05T01:29:20.178Z,64.11
2019-04-05T01:31:46.765Z,64.33
2019-04-05T01:34:13.384Z,64.75
2019-04-05T01:36:39.980Z,64.69
2019-04-05T01:39:06.695Z,64.55
2019-04-05T01:41:33.282Z,64.51
2019-04-05T01:43:59.890Z,64.31
2019-04-05T01:46:26.486Z,64.50
2019-04-05T01:48:53.118Z,64.55
2019-04-05T01:51:19.722Z,64.56
2019-04-05T01:53:46.351Z,64.43
2019-04-05T01:56:12.983Z,64.42
2019-04-05T01:58:39.581Z,64.18
2019-04-05T02:01:06.190Z,64.28
2019-04-05T02:03:32.768Z,64.45
2019-04-05T02:05:59.382Z,64.40
2019-04-05T02:08:25.977Z,64.47
2019-04-05T02:10:52.592Z,64.04
2019-04-05T02:13:19.173Z,64.15
2019-04-05T02:15:45.787Z,64.38
2019-04-05T02:18:12.389Z,64.46
2019-04-05T02:20:38.998Z,64.59
2019-04-05T02:23:05.691Z,64.67
2019-04-05T02:25:32.294Z,65.01
2019-04-05T02:27:58.901Z,64.92
2019-04-05T02:30:25.714Z,65.07
2019-04-05T02:32:52.415Z,65.29
2019-04-05T02:35:19.107Z,65.46
2019-04-05T02:37:45.714Z,65.38
2019-04-05T02:40:14.302Z,65.33
2019-04-05T02:42:41.041Z,65.33
2019-04-05T02:45:07.729Z,65.64
2019-04-05T02:47:34.460Z,65.67
2019-04-05T02:50:01.161Z,65.85
2019-04-05T02:52:27.778Z,65.91
2019-04-05T02:54:54.362Z,65.99
2019-04-05T02:57:21.040Z,65.99
2019-04-05T02:59:47.657Z,66.27
2019-04-05T03:02:14.228Z,66.11
2019-04-05T03:04:40.856Z,66.65
2019-04-05T03:07:07.557Z,66.86
2019-04-05T03:09:34.216Z,66.85
2019-04-05T03:12:00.808Z,66.98
2019-04-05T03:14:27.524Z,67.03
2019-04-05T03:16:54.138Z,66.95
2019-04-05T03:19:21.307Z,67.26
2019-04-05T03:21:51.163Z,67.25
2019-04-05T03:24:18.555Z,67.15
2019-04-05T03:26:47.420Z,66.83
2019-04-05T03:29:14.014Z,67.39
2019-04-05T03:31:40.655Z,67.26
2019-04-05T03:34:07.348Z,67.13
2019-04-05T03:36:33.983Z,67.00
2019-04-05T03:39:00.674Z,67.28
2019-04-05T03:41:27.377Z,67.25
2019-04-05T03:43:53.972Z,67.45
2019-04-05T03:46:20.697Z,67.66
2019-04-05T03:48:47.391Z,67.93
2019-04-05T03:51:14.026Z,67.88
2019-04-05T03:53:40.725Z,67.97
2019-04-05T03:56:07.347Z,67.80
2019-04-05T03:58:34.045Z,68.00
2019-04-05T04:01:00.648Z,68.12
2019-04-05T04:03:27.277Z,68.05
2019-04-05T04:05:53.982Z,67.79
2019-04-05T04:08:23.414Z,67.73
2019-04-05T04:10:49.543Z,67.93
2019-04-05T04:13:16.261Z,67.97
2019-04-05T04:15:42.953Z,68.05
2019-04-05T04:18:09.556Z,69.13
2019-04-05T04:20:37.733Z,70.19
2019-04-05T04:23:04.417Z,69.58
2019-04-05T04:25:31.011Z,68.64
2019-04-05T04:27:57.611Z,66.86
2019-04-05T04:30:24.217Z,67.43
2019-04-05T04:32:50.839Z,67.30
2019-04-05T04:35:17.564Z,70.31
2019-04-05T04:37:44.247Z,71.03
2019-04-05T04:40:11.385Z,66.16
2019-04-05T04:42:37.986Z,65.22
2019-04-05T04:45:11.920Z,65.70
2019-04-05T04:47:33.122Z,68.14
2019-04-05T04:49:59.725Z,65.19
2019-04-05T04:52:26.891Z,63.87
2019-04-05T04:54:53.487Z,63.68
2019-04-05T04:57:20.080Z,63.76
2019-04-05T04:59:46.792Z,63.36
2019-04-05T05:02:13.395Z,63.43
2019-04-05T05:04:40.044Z,65.22
2019-04-05T05:07:06.675Z,66.88
2019-04-05T05:09:33.311Z,65.74
2019-04-05T05:11:59.906Z,66.51
2019-04-05T05:14:26.519Z,65.92
2019-04-05T05:16:53.144Z,63.98
2019-04-05T05:19:19.834Z,63.02
2019-04-05T05:21:46.425Z,62.33
2019-04-05T05:24:13.058Z,60.76
2019-04-05T05:26:39.733Z,59.72
2019-04-05T05:29:06.359Z,59.49
2019-04-05T05:31:33.035Z,57.99
2019-04-05T05:33:59.655Z,58.88
2019-04-05T05:36:26.370Z,62.07
2019-04-05T05:38:53.080Z,58.41
2019-04-05T05:41:19.692Z,59.55
2019-04-05T05:43:46.299Z,58.84
2019-04-05T05:46:12.911Z,59.12
2019-04-05T05:48:39.510Z,60.35
2019-04-05T05:51:06.220Z,61.38
2019-04-05T05:53:32.823Z,62.88
2019-04-05T05:55:59.448Z,63.56
2019-04-05T05:58:26.542Z,64.05
2019-04-05T06:00:53.300Z,64.37
2019-04-05T06:03:19.941Z,64.75
2019-04-05T06:05:46.546Z,65.11
2019-04-05T06:08:13.162Z,65.16
2019-04-05T06:10:39.773Z,64.82
2019-04-05T06:13:07.273Z,65.34
2019-04-05T06:15:37.389Z,65.60
2019-04-05T06:18:04.896Z,65.68
2019-04-05T06:20:31.492Z,65.82
2019-04-05T06:22:58.112Z,65.85
2019-04-05T06:25:24.837Z,66.09
2019-04-05T06:27:51.506Z,65.39
2019-04-05T06:30:18.146Z,66.69
2019-04-05T06:32:44.854Z,65.52
2019-04-05T06:35:11.468Z,65.26
2019-04-05T06:37:38.068Z,65.88
2019-04-05T06:40:05.045Z,65.49
2019-04-05T06:42:31.894Z,64.79
2019-04-05T06:44:58.573Z,64.46
2019-04-05T06:47:25.336Z,64.15
2019-04-05T06:49:52.030Z,64.69
2019-04-05T06:52:18.645Z,64.73
2019-04-05T06:54:45.338Z,63.63
2019-04-05T06:57:12.065Z,64.02
2019-04-05T06:59:38.692Z,64.07
2019-04-05T07:02:05.441Z,63.74
2019-04-05T07:04:32.180Z,64.00
2019-04-05T07:06:58.793Z,63.81
2019-04-05T07:09:25.420Z,63.67
2019-04-05T07:11:52.126Z,63.71
2019-04-05T07:14:18.729Z,63.78
2019-04-05T07:16:45.349Z,64.13
2019-04-05T07:19:12.005Z,64.11
2019-04-05T07:21:38.703Z,63.93
2019-04-05T07:24:05.293Z,63.60
2019-04-05T07:26:31.923Z,63.62
2019-04-05T07:28:58.635Z,63.30
2019-04-05T07:31:25.353Z,63.01
2019-04-05T07:33:51.967Z,63.10
2019-04-05T07:36:18.673Z,62.45
2019-04-05T07:38:45.287Z,62.56
2019-04-05T07:41:11.863Z,61.57
2019-04-05T07:43:38.493Z,61.02
2019-04-05T07:46:05.108Z,61.26
2019-04-05T07:48:43.879Z,61.08
2019-04-05T07:51:00.225Z,60.50
2019-04-05T07:53:26.833Z,59.74
2019-04-05T07:55:53.431Z,60.03
2019-04-05T07:58:20.068Z,59.17
2019-04-05T08:00:53.237Z,59.38
2019-04-05T08:03:20.159Z,58.39
2019-04-05T08:05:47.461Z,58.19
2019-04-05T08:08:17.524Z,58.17
2019-04-05T08:10:44.219Z,57.51
2019-04-05T08:13:10.836Z,56.85
2019-04-05T08:15:37.528Z,56.41
2019-04-05T08:18:04.159Z,55.80
2019-04-05T08:20:30.765Z,54.94
2019-04-05T08:22:57.395Z,54.91
2019-04-05T08:25:24.008Z,54.73
2019-04-05T08:27:50.602Z,53.02
2019-04-05T08:30:17.242Z,54.30
2019-04-05T08:32:43.842Z,54.28
2019-04-05T08:35:10.444Z,54.07
2019-04-05T08:37:37.060Z,53.97
2019-04-05T08:40:03.949Z,53.80
2019-04-05T08:42:30.552Z,53.40
2019-04-05T08:44:57.169Z,52.74
2019-04-05T08:47:23.770Z,52.43
2019-04-05T08:49:50.503Z,51.70
2019-04-05T08:52:17.228Z,51.69
2019-04-05T08:54:43.856Z,51.23
2019-04-05T08:57:10.478Z,51.55
2019-04-05T08:59:37.174Z,52.07
2019-04-05T09:02:03.788Z,51.94
2019-04-05T09:04:30.397Z,51.94
2019-04-05T09:06:57.048Z,51.94
2019-04-05T09:09:23.739Z,51.95
2019-04-05T09:11:50.354Z,52.27
2019-04-05T09:14:17.054Z,52.36
2019-04-05T09:16:43.677Z,52.88
2019-04-05T09:19:22.720Z,53.24
2019-04-05T09:21:40.555Z,53.59
2019-04-05T09:24:07.339Z,53.49
2019-04-05T09:26:34.048Z,53.60
2019-04-05T09:29:00.657Z,53.27
2019-04-05T09:31:27.290Z,53.18
2019-04-05T09:33:53.979Z,53.38
2019-04-05T09:36:22.183Z,53.10
2019-04-05T09:38:48.798Z,53.32
2019-04-05T09:41:15.393Z,53.73
2019-04-05T09:43:42.005Z,53.66
2019-04-05T09:46:08.615Z,53.64
2019-04-05T09:48:35.255Z,53.29
2019-04-05T09:51:01.953Z,53.64
2019-04-05T09:53:28.553Z,52.61
2019-04-05T09:55:55.266Z,52.83
2019-04-05T09:58:21.871Z,52.64
2019-04-05T10:00:48.515Z,52.03
2019-04-05T10:03:15.217Z,51.65
2019-04-05T10:05:41.828Z,51.64
2019-04-05T10:08:08.439Z,50.22
2019-04-05T10:10:35.072Z,50.51
2019-04-05T10:13:01.672Z,50.14
2019-04-05T10:15:28.385Z,49.37
2019-04-05T10:17:55.037Z,49.37
2019-04-05T10:20:21.714Z,49.27
2019-04-05T10:22:48.320Z,48.72
2019-04-05T10:25:14.869Z,48.25
2019-04-05T10:27:41.480Z,48.42
2019-04-05T10:30:08.591Z,49.09
2019-04-05T10:32:35.582Z,47.80
2019-04-05T10:35:02.312Z,48.72
2019-04-05T10:37:28.918Z,48.34
2019-04-05T10:39:55.620Z,48.38
2019-04-05T10:42:29.599Z,48.34
2019-04-05T10:44:56.206Z,49.20
2019-04-05T10:47:22.801Z,48.84
2019-04-05T10:50:01.695Z,49.32
2019-04-05T10:52:17.936Z,49.22
2019-04-05T10:54:49.088Z,48.24
2019-04-05T10:57:18.823Z,48.99
2019-04-05T10:59:45.585Z,47.61
2019-04-05T11:02:12.199Z,47.38
2019-04-05T11:04:38.915Z,47.19
2019-04-05T11:07:05.614Z,46.32
2019-04-05T11:09:32.243Z,45.94
2019-04-05T11:11:58.888Z,47.69
2019-04-05T11:14:25.579Z,47.00
2019-04-05T11:16:58.265Z,47.00
2019-04-05T11:19:20.684Z,45.04
2019-04-05T11:21:48.473Z,45.32
2019-04-05T11:24:15.816Z,45.07
2019-04-05T11:26:42.525Z,46.27
2019-04-05T11:29:09.151Z,45.76
2019-04-05T11:31:35.770Z,46.30
2019-04-05T11:34:02.366Z,46.04
2019-04-05T11:36:28.990Z,46.25
2019-04-05T11:38:55.606Z,47.10
2019-04-05T11:41:22.457Z,47.05
2019-04-05T11:43:49.084Z,46.74
2019-04-05T11:46:18.063Z,46.74
2019-04-05T11:48:44.210Z,46.68
2019-04-05T11:51:11.024Z,46.40
2019-04-05T11:53:37.721Z,46.74
2019-04-05T11:56:14.397Z,46.92
2019-04-05T11:58:32.841Z,46.93
2019-04-05T12:01:11.115Z,47.59
2019-04-05T12:03:38.601Z,47.38
2019-04-05T12:06:05.218Z,47.78
2019-04-05T12:08:31.939Z,47.96
2019-04-05T12:10:58.559Z,47.80
2019-04-05T12:13:25.174Z,47.74
2019-04-05T12:15:51.858Z,47.65
2019-04-05T12:18:19.687Z,47.56
2019-04-05T12:20:52.249Z,47.62
2019-04-05T12:23:15.078Z,47.46
2019-04-05T12:25:41.783Z,48.17
2019-04-05T12:28:10.576Z,49.00
2019-04-05T12:30:37.751Z,49.58
2019-04-05T12:33:13.988Z,49.51
2019-04-05T12:35:32.872Z,49.36
2019-04-05T12:37:59.482Z,50.56
2019-04-05T12:40:26.127Z,50.56
2019-04-05T12:42:53.196Z,51.01
2019-04-05T12:45:19.930Z,50.63
2019-04-05T12:47:46.556Z,50.79
2019-04-05T12:50:14.538Z,49.75
2019-04-05T12:52:41.810Z,48.66
2019-04-05T12:55:13.135Z,47.83
2019-04-05T12:57:39.742Z,46.94
2019-04-05T13:00:07.126Z,46.27
2019-04-05T13:02:34.222Z,45.30
2019-04-05T13:05:00.940Z,46.06
2019-04-05T13:07:27.581Z,45.31
2019-04-05T13:09:55.106Z,46.86
2019-04-05T13:12:21.994Z,47.09
2019-04-05T13:14:48.619Z,47.15
2019-04-05T13:17:15.319Z,47.27
2019-04-05T13:19:42.027Z,47.66
2019-04-05T13:22:08.634Z,47.49
2019-04-05T13:24:35.236Z,46.63
2019-04-05T13:27:02.175Z,46.30
2019-04-05T13:29:28.939Z,46.78
2019-04-05T13:31:55.604Z,44.48
2019-04-05T13:34:25.636Z,43.67
2019-04-05T13:36:50.730Z,42.85
2019-04-05T13:39:17.354Z,42.03
2019-04-05T13:41:44.067Z,40.93
2019-04-05T13:44:10.793Z,40.75
2019-04-05T13:46:39.071Z,41.36
2019-04-05T13:49:05.962Z,42.15
2019-04-05T13:51:32.660Z,43.31
2019-04-05T13:53:59.269Z,43.04
2019-04-05T13:56:25.876Z,44.13
2019-04-05T13:58:52.492Z,45.10
2019-04-05T14:01:20.735Z,45.25
2019-04-05T14:03:48.498Z,45.71
2019-04-05T14:06:16.144Z,46.53
2019-04-05T14:08:42.729Z,46.85
2019-04-05T14:11:10.458Z,47.34
2019-04-05T14:13:42.180Z,47.99
2019-04-05T14:16:06.353Z,48.08
2019-04-05T14:18:33.014Z,48.04
2019-04-05T14:20:59.626Z,48.05
2019-04-05T14:23:26.233Z,48.82
2019-04-05T14:25:52.863Z,48.97
2019-04-05T14:28:19.570Z,49.31
2019-04-05T14:30:46.216Z,49.43
2019-04-05T14:33:12.821Z,49.74
2019-04-05T14:35:39.427Z,49.53
2019-04-05T14:38:06.090Z,50.01
2019-04-05T14:40:33.098Z,49.57
2019-04-05T14:42:59.916Z,49.98
2019-04-05T14:45:26.520Z,50.08
2019-04-05T14:47:53.223Z,49.32
2019-04-05T14:50:19.821Z,49.09
2019-04-05T14:52:49.342Z,48.75
2019-04-05T14:55:14.768Z,48.23
2019-04-05T14:57:41.415Z,47.22
2019-04-05T15:00:08.341Z,45.46
2019-04-05T15:02:34.971Z,44.63
2019-04-05T15:05:01.601Z,44.39
2019-04-05T15:07:28.303Z,43.55
2019-04-05T15:09:55.783Z,42.78
2019-04-05T15:12:22.444Z,43.25
2019-04-05T15:14:49.136Z,43.86
2019-04-05T15:17:15.748Z,44.03
2019-04-05T15:19:42.360Z,44.65
2019-04-05T15:22:11.668Z,44.19
2019-04-05T15:24:37.511Z,43.55
2019-04-05T15:27:04.315Z,43.16
2019-04-05T15:29:30.984Z,43.29
2019-04-05T15:31:57.701Z,43.44
2019-04-05T15:34:28.147Z,43.16
2019-04-05T15:36:52.782Z,42.81
2019-04-05T15:39:19.396Z,41.51
2019-04-05T15:41:46.003Z,41.05
2019-04-05T15:44:12.710Z,40.43
2019-04-05T15:46:39.332Z,40.66
2019-04-05T15:49:05.948Z,41.74
2019-04-05T15:51:35.728Z,44.21
2019-04-05T15:54:02.363Z,45.42
2019-04-05T15:56:29.046Z,46.48
2019-04-05T15:58:55.684Z,46.44
2019-04-05T16:01:22.289Z,46.55
2019-04-05T16:03:49.036Z,46.43
2019-04-05T16:06:15.662Z,47.29
2019-04-05T16:08:42.451Z,47.37
2019-04-05T16:11:09.094Z,47.90
2019-04-05T16:13:36.555Z,49.02
2019-04-05T16:16:03.152Z,49.20
2019-04-05T16:18:29.780Z,49.75
2019-04-05T16:20:56.427Z,50.39
2019-04-05T16:23:23.114Z,50.78
2019-04-05T16:25:49.748Z,51.25
2019-04-05T16:28:16.344Z,50.85
2019-04-05T16:30:42.958Z,50.77
2019-04-05T16:33:09.548Z,50.24
2019-04-05T16:35:36.158Z,49.74
2019-04-05T16:38:02.958Z,49.16
2019-04-05T16:40:31.307Z,48.38
2019-04-05T16:43:02.785Z,47.80
2019-04-05T16:45:26.627Z,47.05
2019-04-05T16:47:53.231Z,47.18
2019-04-05T16:50:21.336Z,47.79
2019-04-05T16:52:48.151Z,47.83
2019-04-05T16:55:14.676Z,48.27
2019-04-05T16:57:41.347Z,49.15
2019-04-05T17:00:08.678Z,49.27
2019-04-05T17:02:35.293Z,50.00
2019-04-05T17:05:01.900Z,50.70
2019-04-05T17:07:28.506Z,51.28
2019-04-05T17:09:55.113Z,51.90
2019-04-05T17:12:21.857Z,52.51
2019-04-05T17:14:48.463Z,52.78
2019-04-05T17:17:15.116Z,53.09
2019-04-05T17:19:41.809Z,53.64
2019-04-05T17:22:08.491Z,53.77
2019-04-05T17:24:35.152Z,53.89
2019-04-05T17:27:01.757Z,55.02
2019-04-05T17:29:28.383Z,55.40
2019-04-05T17:31:55.014Z,55.60
2019-04-05T17:34:21.751Z,55.84
2019-04-05T17:36:48.532Z,55.62
2019-04-05T17:39:15.166Z,55.84
2019-04-05T17:41:41.868Z,56.41
2019-04-05T17:44:08.482Z,56.20
2019-04-05T17:46:35.196Z,56.35
2019-04-05T17:49:01.817Z,56.58
2019-04-05T17:51:28.521Z,57.21
2019-04-05T17:53:55.149Z,57.53
2019-04-05T17:56:21.868Z,57.82
2019-04-05T17:58:48.506Z,58.19
2019-04-05T18:01:15.346Z,58.95
2019-04-05T18:03:42.009Z,59.67
2019-04-05T18:06:08.678Z,60.29
2019-04-05T18:08:35.361Z,60.94
2019-04-05T18:11:02.074Z,61.34
2019-04-05T18:13:28.802Z,61.72
2019-04-05T18:15:55.525Z,62.07
2019-04-05T18:18:22.151Z,62.30
2019-04-05T18:20:48.873Z,62.51
2019-04-05T18:23:24.907Z,62.71
2019-04-05T18:25:44.210Z,62.90
2019-04-05T18:28:10.888Z,63.28
2019-04-05T18:30:37.520Z,63.65
2019-04-05T18:33:04.238Z,63.74
2019-04-05T18:35:30.969Z,63.86
2019-04-05T18:37:57.699Z,63.91
2019-04-05T18:40:24.401Z,64.10
2019-04-05T18:42:51.110Z,64.05
2019-04-05T18:45:17.878Z,64.29
2019-04-05T18:47:44.620Z,64.45
2019-04-05T18:50:11.323Z,64.66
2019-04-05T18:52:37.961Z,64.79
2019-04-05T18:55:05.562Z,64.75
2019-04-05T18:57:32.280Z,64.67
2019-04-05T18:59:59.004Z,64.66
2019-04-05T19:02:25.719Z,64.63
2019-04-05T19:04:52.341Z,64.72
2019-04-05T19:07:18.992Z,65.02
2019-04-05T19:09:45.721Z,65.31
2019-04-05T19:12:12.473Z,65.45
2019-04-05T19:14:39.168Z,65.55
2019-04-05T19:17:05.764Z,65.93
2019-04-05T19:19:32.430Z,66.31
2019-04-05T19:21:59.087Z,66.37
2019-04-05T19:24:25.717Z,66.31
2019-04-05T19:26:52.411Z,66.21
2019-04-05T19:29:19.037Z,66.29
2019-04-05T19:49:05.401Z,67.23
2019-04-05T19:51:32.009Z,67.28
2019-04-05T19:54:01.410Z,67.32
2019-04-05T19:56:27.259Z,67.41
2019-04-05T19:58:53.967Z,67.38
2019-04-05T20:01:23.158Z,67.21
2019-04-05T20:03:49.784Z,67.11
2019-04-05T20:06:20.673Z,66.95
2019-04-05T20:08:47.781Z,66.77
2019-04-05T20:11:14.504Z,66.69
2019-04-05T20:13:41.102Z,66.82
2019-04-05T20:16:07.749Z,66.99
2019-04-05T20:18:34.435Z,67.34
2019-04-05T20:21:01.068Z,67.58
2019-04-05T20:23:27.678Z,67.88
2019-04-05T20:25:54.328Z,67.77
2019-04-05T20:28:21.039Z,68.12
2019-04-05T20:30:47.744Z,68.23
2019-04-05T20:33:14.372Z,68.17
2019-04-05T20:35:41.001Z,68.17
2019-04-05T20:38:07.739Z,68.33
2019-04-05T20:40:34.450Z,68.37
2019-04-05T20:43:01.177Z,68.51
2019-04-05T20:45:27.789Z,68.65
2019-04-05T20:47:54.402Z,68.55
2019-04-05T20:50:21.009Z,68.40
2019-04-05T20:52:47.740Z,68.18
2019-04-05T20:55:15.356Z,68.05
2019-04-05T20:57:42.000Z,67.82
2019-04-05T21:00:09.826Z,67.64
2019-04-05T21:02:36.469Z,67.39
2019-04-05T21:05:03.393Z,67.42
2019-04-05T21:07:30.028Z,67.44
2019-04-05T21:09:56.665Z,67.51
2019-04-05T21:12:23.279Z,67.58
2019-04-05T21:14:49.990Z,67.49
2019-04-05T21:17:16.606Z,67.49
2019-04-05T21:22:32.807Z,67.55
2019-04-05T21:24:59.431Z,67.80
2019-04-05T21:27:26.111Z,67.93
2019-04-05T21:29:52.762Z,68.03
2019-04-05T21:32:19.457Z,68.26
2019-04-05T21:34:46.177Z,68.43
2019-04-05T21:37:12.804Z,68.62
2019-04-05T21:39:39.443Z,68.70
2019-04-05T21:42:06.138Z,68.54
2019-04-05T21:44:32.759Z,68.60
2019-04-05T21:46:59.471Z,68.88
2019-04-05T21:49:26.200Z,69.38
2019-04-05T21:51:52.900Z,69.48
2019-04-05T21:54:19.531Z,69.44
2019-04-05T21:56:46.520Z,69.55
2019-04-05T21:59:13.229Z,70.08
2019-04-05T22:01:40.057Z,70.18
2019-04-05T22:04:06.682Z,70.56
2019-04-05T22:06:33.288Z,70.51
2019-04-05T22:08:59.911Z,70.69
2019-04-05T22:11:27.779Z,71.02
2019-04-05T22:14:01.178Z,70.69
2019-04-05T22:16:27.804Z,70.92
2019-04-05T22:18:54.495Z,70.70
2019-04-05T22:21:21.112Z,71.07
2019-04-05T22:23:47.724Z,70.93
2019-04-05T22:26:14.432Z,70.96
2019-04-05T22:28:41.036Z,71.01
2019-04-05T22:31:07.742Z,71.09
2019-04-05T22:33:34.428Z,71.20
2019-04-05T22:36:01.073Z,71.43
2019-04-05T22:38:27.660Z,71.37
2019-04-05T22:40:54.278Z,71.19
2019-04-05T22:43:20.898Z,70.99
2019-04-05T22:45:47.506Z,71.19
2019-04-05T22:48:14.220Z,71.23
2019-04-05T22:50:40.860Z,71.38
2019-04-05T22:53:07.515Z,71.28
2019-04-05T22:55:34.129Z,71.14
2019-04-05T22:58:00.845Z,71.53
2019-04-05T23:00:27.465Z,71.69
2019-04-05T23:02:54.264Z,71.33
2019-04-05T23:05:21.022Z,71.54
2019-04-05T23:07:47.891Z,71.57
2019-04-05T23:10:14.519Z,71.61
2019-04-05T23:12:41.173Z,71.67
2019-04-05T23:15:07.917Z,71.63
2019-04-05T23:17:34.578Z,71.57
2019-04-05T23:20:01.312Z,71.83
2019-04-05T23:22:27.977Z,72.01
2019-04-05T23:24:54.609Z,72.19
2019-04-05T23:27:21.217Z,72.10
2019-04-05T23:29:47.839Z,71.87
2019-04-05T23:32:21.763Z,71.80
2019-04-05T23:34:48.459Z,71.94
2019-04-05T23:37:15.057Z,72.14
2019-04-05T23:39:41.682Z,72.18
2019-04-05T23:42:08.401Z,72.24
2019-04-05T23:44:35.105Z,71.75
2019-04-05T23:47:01.743Z,72.16
2019-04-05T23:49:28.363Z,72.56
2019-04-05T23:51:55.065Z,72.72
2019-04-05T23:54:21.691Z,72.56
2019-04-05T23:56:48.414Z,72.46
2019-04-05T23:59:15.212Z,72.32
